Time;durP1;ratioP1;P1;durP2;ratioP2;P2;SDS_P1;SDS_P2;PMS_P1;PMS_P2;Temp;Humidity;BMP_temperature;BMP_pressure;BME280_temperature;BME280_humidity;BME280_pressure;Samples;Min_cycle;Max_cycle;Signal;HPM_P1;HPM_P2
2021/03/15 07:36:59;;;;;;;30.15;23.70;;;;;;;3.23;77.04;97162.91;1845191;76;28424;-57
2021/03/15 07:39:29;;;;;;;23.92;17.67;;;;;;;3.20;77.04;97168.20;1787976;80;21563;-58
2021/03/15 07:42:06;;;;;;;19.52;14.63;;;;;;;3.27;76.86;97167.97;1787819;80;21378;-61
2021/03/15 07:44:34;;;;;;;20.12;15.05;;;;;;;3.34;76.80;97175.13;1788444;80;21447;-59
2021/03/15 07:47:06;;;;;;;26.12;17.07;;;;;;;3.46;76.75;97175.66;1788666;79;21491;-63
2021/03/15 07:49:38;;;;;;;20.20;16.87;;;;;;;3.57;76.50;97176.45;1821948;77;21429;-62
2021/03/15 07:52:11;;;;;;;24.10;16.70;;;;;;;3.66;76.14;97173.00;1772074;80;21048;-64
2021/03/15 07:54:42;;;;;;;23.70;17.15;;;;;;;3.73;75.97;97170.88;1792754;79;21195;-57
2021/03/15 07:57:22;;;;;;;23.75;19.50;;;;;;;3.80;75.73;97171.41;1744269;81;20946;-62
2021/03/15 07:59:52;;;;;;;21.85;17.62;;;;;;;3.88;75.65;97174.05;1741198;82;21100;-62
2021/03/15 08:02:26;;;;;;;20.12;14.58;;;;;;;3.99;75.34;97178.27;1743779;79;21054;-61
2021/03/15 08:04:57;;;;;;;20.00;14.70;;;;;;;4.06;75.08;97175.61;1741150;82;21072;-61
2021/03/15 08:07:26;;;;;;;24.43;14.15;;;;;;;4.18;74.90;97182.47;1757770;79;21381;-62
2021/03/15 08:09:57;;;;;;;16.20;12.25;;;;;;;4.23;74.58;97176.64;1752380;79;21099;-59
2021/03/15 08:12:29;;;;;;;21.00;12.35;;;;;;;4.27;74.17;97176.88;1766868;81;21034;-60
2021/03/15 08:15:09;;;;;;;17.30;13.00;;;;;;;4.27;74.10;97185.63;1766814;81;21208;-63
2021/03/15 08:17:44;;;;;;;19.95;12.73;;;;;;;4.30;74.05;97186.95;1766896;81;20982;-62
2021/03/15 08:20:15;;;;;;;15.45;13.13;;;;;;;4.42;74.03;97188.26;1748455;81;22197;-60
2021/03/15 08:22:45;;;;;;;19.77;12.68;;;;;;;4.45;73.57;97184.27;1766836;81;20967;-62
2021/03/15 08:25:13;;;;;;;17.32;12.03;;;;;;;4.49;73.42;97186.64;1742408;80;21400;-61
2021/03/15 08:27:43;;;;;;;17.40;13.08;;;;;;;4.54;73.33;97186.63;1721293;83;20926;-62
2021/03/15 08:30:19;;;;;;;21.77;12.35;;;;;;;4.53;73.22;97174.42;1733206;81;20944;-60
2021/03/15 08:32:47;;;;;;;18.65;12.23;;;;;;;4.56;73.20;97181.31;1788518;80;21535;-63
2021/03/15 08:35:38;;;;;;;17.73;12.93;;;;;;;4.62;73.14;97184.72;1786191;80;21179;-63
2021/03/15 08:38:07;;;;;;;22.27;13.88;;;;;;;4.71;73.03;97180.47;1768925;81;20934;-63
2021/03/15 08:40:48;;;;;;;20.65;13.45;;;;;;;4.76;72.88;97179.09;1768786;81;21540;-59
2021/03/15 08:43:25;;;;;;;27.85;15.55;;;;;;;4.80;72.80;97180.92;1771784;81;20895;-61
2021/03/15 08:46:02;;;;;;;25.82;13.43;;;;;;;4.82;72.53;97181.47;1772125;81;22189;-59
2021/03/15 08:48:42;;;;;;;20.55;14.15;;;;;;;4.80;72.42;97182.25;1771779;81;21108;-59
2021/03/15 08:51:15;;;;;;;23.98;17.48;;;;;;;4.81;72.48;97182.52;1770022;81;21014;-63
2021/03/15 08:53:49;;;;;;;29.85;15.58;;;;;;;4.86;72.43;97184.36;1778364;80;21595;-60
2021/03/15 08:56:29;;;;;;;20.08;16.87;;;;;;;4.92;72.11;97179.83;1733347;81;21579;-59
2021/03/15 08:59:01;;;;;;;20.15;15.93;;;;;;;4.95;72.14;97184.57;1747483;82;21972;-63
2021/03/15 09:01:50;;;;;;;21.45;15.85;;;;;;;5.00;72.05;97180.05;1747450;82;21490;-63
2021/03/15 09:04:42;;;;;;;19.80;17.62;;;;;;;5.02;71.90;97175.25;1731093;82;21089;-63
2021/03/15 09:07:31;;;;;;;26.12;19.90;;;;;;;5.01;71.94;97177.66;1746600;81;20951;-61
2021/03/15 09:10:31;;;;;;;24.20;17.23;;;;;;;5.03;71.88;97174.20;1764206;81;20955;-62
2021/03/15 09:13:20;;;;;;;21.57;18.00;;;;;;;5.06;71.95;97170.20;1764180;81;22160;-64
2021/03/15 09:15:57;;;;;;;22.70;18.55;;;;;;;5.11;72.00;97171.50;1764066;81;20907;-62
2021/03/15 09:18:54;;;;;;;21.07;18.62;;;;;;;5.17;72.02;97168.53;1764318;81;20959;-62
2021/03/15 09:22:01;;;;;;;25.70;19.12;;;;;;;5.25;71.88;97156.55;1764522;81;20958;-62
2021/03/15 09:24:58;;;;;;;24.55;18.12;;;;;;;5.31;71.72;97156.23;1754890;81;21207;-62
2021/03/15 09:27:43;;;;;;;20.45;18.23;;;;;;;5.30;71.57;97151.20;1766546;81;22782;-63
2021/03/15 09:30:30;;;;;;;23.02;18.20;;;;;;;5.30;71.64;97149.87;1768751;81;21476;-58
2021/03/15 09:32:58;;;;;;;21.30;16.32;;;;;;;5.24;71.32;97138.48;1768302;81;21460;-58
2021/03/15 09:38:15;;;;;;;25.12;18.02;;;;;;;5.20;71.69;97145.42;1779156;80;21591;-61
2021/03/15 09:40:49;;;;;;;19.50;16.35;;;;;;;5.28;71.78;97144.83;1712633;82;21397;-61
2021/03/15 09:43:27;;;;;;;19.05;16.30;;;;;;;5.32;71.75;97148.50;1751878;80;21123;-57
2021/03/15 09:46:00;;;;;;;17.50;15.03;;;;;;;5.33;71.63;97143.46;1777191;79;20994;-62
2021/03/15 09:48:32;;;;;;;21.35;16.37;;;;;;;5.31;71.72;97138.17;1804021;79;20934;-59
2021/03/15 09:51:08;;;;;;;19.45;15.28;;;;;;;5.28;71.62;97142.17;1799940;79;21038;-59
2021/03/15 09:53:38;;;;;;;17.27;15.40;;;;;;;5.20;71.70;97144.63;1777240;80;22194;-58
2021/03/15 09:56:09;;;;;;;17.55;14.15;;;;;;;5.18;71.90;97143.55;1699024;81;20914;-58
2021/03/15 09:58:45;;;;;;;16.80;14.63;;;;;;;5.20;71.93;97145.42;1739760;81;20993;-62
2021/03/15 10:01:18;;;;;;;19.37;15.00;;;;;;;5.22;72.05;97151.78;1741608;81;21630;-61
2021/03/15 10:03:55;;;;;;;20.72;16.00;;;;;;;5.28;72.09;97149.33;1728835;80;20927;-60
2021/03/15 10:06:45;;;;;;;20.40;14.95;;;;;;;5.37;71.97;97147.14;1780998;79;22888;-55
2021/03/15 10:09:31;;;;;;;18.00;15.63;;;;;;;5.42;71.59;97136.48;1752298;80;21631;-59
2021/03/15 10:12:21;;;;;;;20.27;15.78;;;;;;;5.45;71.65;97138.59;1871781;76;23201;-59
2021/03/15 10:15:11;;;;;;;20.30;15.95;;;;;;;5.39;71.69;97139.69;1720897;82;21231;-57
2021/03/15 10:17:57;;;;;;;22.30;15.88;;;;;;;5.42;71.79;97140.47;1877213;76;22687;-59
2021/03/15 10:20:47;;;;;;;19.85;13.93;;;;;;;5.37;71.85;97143.16;1851441;77;21575;-59
2021/03/15 10:23:19;;;;;;;18.48;14.58;;;;;;;5.42;71.96;97139.14;1851610;77;21322;-62
2021/03/15 10:26:04;;;;;;;17.52;15.72;;;;;;;5.45;71.65;97139.92;1852478;77;21516;-62
2021/03/15 10:28:34;;;;;;;15.95;14.23;;;;;;;5.42;71.62;97133.83;1846736;77;21444;-61
2021/03/15 10:31:08;;;;;;;18.25;15.45;;;;;;;5.40;71.93;97129.34;1850580;76;21054;-54
2021/03/15 10:33:43;;;;;;;18.07;16.17;;;;;;;5.38;71.92;97134.14;1842414;76;21196;-60
2021/03/15 10:36:17;;;;;;;21.48;16.10;;;;;;;5.37;71.76;97125.13;1806795;77;21190;-63
2021/03/15 10:38:47;;;;;;;21.20;17.57;;;;;;;5.35;71.72;97125.39;1817067;77;20934;-58
2021/03/15 10:41:16;;;;;;;21.07;17.62;;;;;;;5.35;71.61;97124.06;1848122;77;21022;-59
2021/03/15 10:43:45;;;;;;;22.27;18.73;;;;;;;5.37;71.79;97122.47;1837232;78;21192;-58
2021/03/15 10:46:23;;;;;;;21.23;18.85;;;;;;;5.40;71.75;97124.03;1836521;78;21181;-56
2021/03/15 10:48:54;;;;;;;22.35;18.90;;;;;;;5.45;71.65;97120.00;1837425;78;21226;-58
2021/03/15 10:51:23;;;;;;;19.77;17.73;;;;;;;5.50;71.55;97117.31;1837221;78;21153;-58
2021/03/15 10:53:57;;;;;;;19.98;16.60;;;;;;;5.56;71.38;97109.30;1835151;78;21200;-58
2021/03/15 10:56:41;;;;;;;24.00;17.75;;;;;;;5.63;71.25;97111.10;1872110;76;22723;-58
2021/03/15 10:59:33;;;;;;;20.88;18.05;;;;;;;5.54;71.21;97109.03;1844309;77;21017;-58
2021/03/15 11:02:03;;;;;;;23.12;19.10;;;;;;;5.53;71.34;97100.80;1843916;77;21187;-57
2021/03/15 11:04:40;;;;;;;23.10;20.00;;;;;;;5.52;71.47;97100.55;1843834;76;21089;-58
2021/03/15 11:07:29;;;;;;;21.70;18.50;;;;;;;5.52;71.42;97100.55;1875746;76;20951;-61
2021/03/15 11:10:07;;;;;;;21.87;19.55;;;;;;;5.58;71.62;97092.55;1869127;76;20907;-57
2021/03/15 11:12:52;;;;;;;23.80;19.20;;;;;;;5.64;71.40;97086.10;1782254;80;20935;-60
2021/03/15 11:15:35;;;;;;;20.55;18.35;;;;;;;5.64;71.11;97084.24;1800173;79;21117;-58
2021/03/15 11:18:10;;;;;;;23.47;19.00;;;;;;;5.63;70.87;97082.64;1756300;81;21541;-61
2021/03/15 11:20:51;;;;;;;20.80;17.73;;;;;;;5.61;70.92;97084.80;1756716;80;21022;-62
2021/03/15 11:23:32;;;;;;;21.25;18.60;;;;;;;5.63;70.91;97079.22;1756427;81;21572;-57
2021/03/15 11:26:14;;;;;;;20.15;17.35;;;;;;;5.62;70.67;97076.30;1756666;80;21595;-62
2021/03/15 11:28:45;;;;;;;18.52;16.55;;;;;;;5.59;70.65;97080.83;1756652;80;22032;-59
2021/03/15 11:31:17;;;;;;;16.77;15.13;;;;;;;5.60;70.57;97081.10;1776690;78;21010;-59
2021/03/15 11:34:01;;;;;;;20.05;16.10;;;;;;;5.62;70.40;97078.42;1783334;80;20946;-61
2021/03/15 11:36:45;;;;;;;18.27;15.70;;;;;;;5.62;70.30;97072.31;1814606;78;21440;-65
2021/03/15 11:39:15;;;;;;;23.77;15.67;;;;;;;5.69;70.25;97071.45;1748617;80;21172;-60
2021/03/15 11:41:52;;;;;;;20.23;17.10;;;;;;;5.74;70.14;97075.38;1775941;80;21901;-62
2021/03/15 11:44:20;;;;;;;18.55;16.23;;;;;;;5.80;70.01;97079.03;1741192;82;21148;-62
2021/03/15 11:46:49;;;;;;;18.75;16.75;;;;;;;5.77;69.74;97074.27;1793757;78;21064;-59
2021/03/15 11:49:20;;;;;;;22.13;18.82;;;;;;;5.69;69.85;97068.27;1779082;79;21543;-60
2021/03/15 11:51:55;;;;;;;19.27;17.05;;;;;;;5.68;69.96;97067.19;1823893;78;21489;-58
2021/03/15 11:54:37;;;;;;;19.30;16.12;;;;;;;5.65;70.12;97062.46;1795879;78;21382;-62
2021/03/15 11:57:07;;;;;;;18.77;16.45;;;;;;;5.68;70.41;97063.20;1775216;80;21488;-59
2021/03/15 11:59:37;;;;;;;20.55;17.73;;;;;;;5.70;70.11;97057.88;1750924;82;21107;-61
2021/03/15 12:02:09;;;;;;;20.88;17.85;;;;;;;5.69;70.08;97054.98;1750502;82;21463;-58
2021/03/15 12:04:40;;;;;;;19.95;16.95;;;;;;;5.69;70.24;97051.52;1788558;80;21413;-59
2021/03/15 12:07:11;;;;;;;19.62;16.82;;;;;;;5.72;70.21;97053.09;1756959;80;21379;-61
2021/03/15 12:09:46;;;;;;;19.55;16.42;;;;;;;5.75;70.07;97046.39;1785546;78;20997;-61
2021/03/15 12:12:15;;;;;;;19.82;17.23;;;;;;;5.72;69.89;97041.67;1752789;80;21139;-61
2021/03/15 12:14:46;;;;;;;19.00;15.40;;;;;;;5.73;69.80;97039.25;1749050;79;21574;-61
2021/03/15 12:17:19;;;;;;;21.77;19.10;;;;;;;5.74;69.53;97032.88;1745656;81;21541;-60
2021/03/15 12:19:59;;;;;;;20.55;16.00;;;;;;;5.74;69.81;97026.23;1715448;83;21416;-62
2021/03/15 12:22:46;;;;;;;18.87;15.80;;;;;;;5.86;69.96;97030.65;1868781;75;27698;-63
2021/03/15 12:25:16;;;;;;;18.32;15.43;;;;;;;5.95;69.54;97026.29;1844650;77;21330;-61
2021/03/15 12:27:47;;;;;;;17.10;15.25;;;;;;;5.98;69.19;97023.08;1817798;78;21329;-63
2021/03/15 12:30:20;;;;;;;19.92;15.32;;;;;;;5.91;69.10;97022.06;1863125;76;20939;-59
2021/03/15 12:32:50;;;;;;;20.65;15.83;;;;;;;5.84;69.43;97025.59;1861034;76;21062;-61
2021/03/15 12:35:19;;;;;;;18.98;15.80;;;;;;;5.84;69.58;97020.28;1838569;76;21045;-59
2021/03/15 12:37:49;;;;;;;18.27;15.30;;;;;;;5.84;69.58;97025.59;1821699;77;21221;-57
2021/03/15 12:40:21;;;;;;;18.45;14.90;;;;;;;5.87;69.65;97019.73;1817776;78;21449;-62
2021/03/15 12:42:50;;;;;;;17.32;15.50;;;;;;;5.91;69.52;97017.31;1783079;77;21187;-66
2021/03/15 12:45:23;;;;;;;18.55;13.90;;;;;;;5.89;69.32;97016.77;1845858;76;21168;-66
2021/03/15 12:47:53;;;;;;;17.12;14.38;;;;;;;5.88;69.20;97009.89;1785938;79;21578;-59
2021/03/15 12:50:24;;;;;;;17.40;13.90;;;;;;;5.88;69.30;97019.20;1770694;80;21147;-64
2021/03/15 12:52:54;;;;;;;14.95;12.45;;;;;;;5.90;69.22;97022.36;1771989;81;22077;-60
2021/03/15 12:55:24;;;;;;;22.40;14.23;;;;;;;5.88;69.02;97018.66;1770405;78;21574;-61
2021/03/15 12:57:53;;;;;;;15.88;14.15;;;;;;;5.81;68.86;97014.20;1781288;80;21502;-58
2021/03/15 13:00:22;;;;;;;17.80;14.07;;;;;;;5.74;69.16;97014.27;1812884;77;21150;-59
2021/03/15 13:02:55;;;;;;;21.15;14.23;;;;;;;5.72;69.30;97014.56;1812647;78;20938;-60
2021/03/15 13:05:25;;;;;;;17.25;14.45;;;;;;;5.70;69.04;97007.95;1776078;79;22120;-59
2021/03/15 13:08:11;;;;;;;17.90;14.95;;;;;;;5.66;69.07;97017.53;1781205;80;20991;-61
2021/03/15 13:10:59;;;;;;;16.67;12.80;;;;;;;5.60;69.12;97012.03;1805410;79;21027;-57
2021/03/15 13:13:28;;;;;;;18.57;13.55;;;;;;;5.54;69.35;97018.72;1782786;80;21077;-56
2021/03/15 13:16:00;;;;;;;19.00;13.38;;;;;;;5.52;69.25;97014.77;1803296;79;21046;-60
2021/03/15 13:18:31;;;;;;;20.62;13.35;;;;;;;5.51;69.25;97012.63;1805958;79;22193;-61
2021/03/15 13:21:00;;;;;;;19.73;13.83;;;;;;;5.50;69.17;97012.39;1753078;81;21017;-59
2021/03/15 13:23:30;;;;;;;18.65;12.10;;;;;;;5.50;69.14;97009.74;1786572;80;20951;-61
2021/03/15 13:26:03;;;;;;;14.90;11.63;;;;;;;5.52;68.99;97008.92;1791340;80;21570;-62
2021/03/15 13:28:33;;;;;;;14.83;11.70;;;;;;;5.57;68.64;97012.59;1789987;80;21517;-61
2021/03/15 13:31:01;;;;;;;14.73;11.73;;;;;;;5.56;68.34;97011.79;1815673;78;22493;-58
2021/03/15 13:33:30;;;;;;;17.17;13.30;;;;;;;5.54;68.08;97005.44;1818394;78;21876;-58
2021/03/15 13:36:03;;;;;;;15.90;13.43;;;;;;;5.52;68.01;97007.59;1791010;79;20992;-60
2021/03/15 13:38:34;;;;;;;20.17;14.25;;;;;;;5.56;67.80;97015.77;1785759;80;21471;-64
2021/03/15 13:41:05;;;;;;;19.42;12.50;;;;;;;5.60;67.76;97016.02;1775066;78;21084;-60
2021/03/15 13:43:43;;;;;;;15.80;11.83;;;;;;;5.66;67.52;97021.52;1799495;77;22304;-62
2021/03/15 13:46:13;;;;;;;15.58;12.50;;;;;;;5.75;67.38;97019.30;1802425;78;21561;-64
2021/03/15 13:48:48;;;;;;;;;;;;;;;5.81;67.07;97022.70;1792614;80;21478;-64
2021/03/15 13:51:17;;;;;;;20.30;13.83;;;;;;;5.86;66.75;97016.03;1815036;77;21769;-61
2021/03/15 13:53:46;;;;;;;13.55;12.10;;;;;;;5.88;66.53;97019.20;1805353;78;21433;-63
2021/03/15 13:56:14;;;;;;;13.40;11.60;;;;;;;5.91;66.03;97022.06;1824309;78;22686;-62
2021/03/15 13:58:44;;;;;;;17.57;13.15;;;;;;;5.85;66.02;97017.89;1794207;79;20963;-58
2021/03/15 14:01:14;;;;;;;16.37;12.23;;;;;;;5.81;66.24;97012.87;1826535;78;20912;-61
2021/03/15 14:04:12;;;;;;;16.47;13.80;;;;;;;5.84;66.20;97014.17;1770811;77;27865;-62
2021/03/15 14:06:43;;;;;;;20.70;14.95;;;;;;;5.80;66.25;97015.79;1751551;79;20943;-61
2021/03/15 14:09:14;;;;;;;19.20;12.53;;;;;;;5.80;66.15;97018.45;1783587;80;21206;-63
2021/03/15 14:11:45;;;;;;;15.80;12.65;;;;;;;5.73;66.22;97016.66;1782587;80;21055;-57
2021/03/15 14:14:18;;;;;;;20.30;14.47;;;;;;;5.71;66.41;97012.17;1752878;79;21043;-57
2021/03/15 14:16:49;;;;;;;24.75;14.00;;;;;;;5.75;66.42;97011.85;1762135;80;21091;-60
2021/03/15 14:19:18;;;;;;;16.12;12.40;;;;;;;5.84;66.31;97019.48;1749031;82;21045;-61
2021/03/15 14:22:00;;;;;;;18.25;14.55;;;;;;;5.86;66.22;97019.48;1747906;81;22191;-61
2021/03/15 14:24:36;;;;;;;13.80;12.07;;;;;;;5.85;66.18;97011.78;1749119;81;21524;-61
2021/03/15 14:27:07;;;;;;;14.28;12.78;;;;;;;5.81;65.92;97009.41;1750442;81;20942;-62
2021/03/15 14:29:36;;;;;;;17.50;12.45;;;;;;;5.75;66.16;97011.32;1750758;82;21468;-64
2021/03/15 14:32:06;;;;;;;17.45;14.00;;;;;;;5.68;66.21;97012.73;1750097;81;21191;-65
2021/03/15 14:34:37;;;;;;;19.40;15.03;;;;;;;5.63;66.40;97013.58;1748310;81;22242;-61
2021/03/15 14:37:13;;;;;;;21.82;16.70;;;;;;;5.59;66.45;97017.08;1758541;80;21541;-62
2021/03/15 14:39:42;;;;;;;20.92;16.60;;;;;;;5.52;66.86;97012.91;1768570;79;21088;-61
2021/03/15 14:42:11;;;;;;;18.42;15.15;;;;;;;5.47;66.95;97006.84;1784557;80;21526;-63
2021/03/15 14:44:40;;;;;;;16.27;13.32;;;;;;;5.35;67.18;97007.75;1784745;80;21534;-63
2021/03/15 14:47:10;;;;;;;20.70;16.12;;;;;;;5.23;67.28;97011.34;1782273;80;23851;-58
